WI00 weather

Norrie Brook Airport
Eland, Wisconsin, United States

Public forecast

Using degrees Fahrenheit for public forecast. Weather courtesy of forecast.io.

METAR (pilot weather report)

Closest report is Wausau Downtown Airport, 17.1 nm (31.7 km) W. Retrieved 2019/09/22 19:54 UTC (1 hour ago):

KAUW 221954Z AUTO 26005KT 10SM CLR 19/16 A2976 RMK AO2 SLP075 T01940156

TAF (pilot weather forecast)

Closest forecast is Wausau Downtown Airport, 17.1 nm (31.7 km) W. Retrieved 2019/09/22 18:36 UTC (3 hours ago):

TAF KAUW 221734Z 2218/2318 28005KT P6SM VCSH SCT022 BKN060 OVC100 FM230200 32007KT P6SM -SHRA BKN040 OVC060 FM230500 31006KT P6SM SCT012 BKN022 FM230800 29007KT P6SM SCT015 BKN100 FM231600 29010G16KT P6SM SCT040 BKN150